Latest Coastal Weather Observations for Minlaton Airport

IDS60701

Issued at 10:41 pm CST Thursday 18 July 2024 (issued every 10 minutes, with the page automatically refreshed every 10 minutes)

About coastal observations | Map of coastal stations | Coastal observations for SA | Marine services | Other Formats
Station Details ID: 022031 Name: MINLATON AERO Lat: -34.75 Lon: 137.53 Height: 32.0 m
Data from the previous 72 hours. | See also: Recent months at Minlaton Airport
Date/Time
CST
Wind Sea
Height
m
Swell Vis
km
Cloud Weather Temp
°C
Press
MSL
hPa
Rain since
9am
mm
Dir  Spd
kts
Gust
kts
Height
m
Period
s
Dir
18/10:30pm N 17 21 - - - - - - - 10.1 1014.4 0.0
18/10:00pm N 17 19 - - - - - - - 10.4 1014.5 0.0
18/09:30pm N 14 17 - - - - - - - 9.8 1015.0 0.0
18/09:00pm N 15 19 - - - - - - - 10.5 1015.8 0.0
18/08:30pm N 14 17 - - - - - - - 9.6 1016.2 0.0
18/08:00pm NNE 11 13 - - - - - - - 9.1 1016.4 0.0
18/07:30pm N 11 13 - - - - - - - 9.0 1016.9 0.0
18/07:00pm N 10 13 - - - - - - - 9.3 1017.0 0.0
18/06:30pm N 11 13 - - - - - - - 9.6 1016.9 0.0
18/06:00pm N 11 14 - - - - - - - 10.2 1016.9 0.0
18/05:30pm N 11 13 - - - - - - - 10.6 1017.1 0.0
18/05:00pm N 12 16 - - - - - - - 11.2 1017.8 0.0
18/04:30pm NNW 12 15 - - - - - - - 11.5 1017.9 0.0
18/04:00pm NNW 12 15 - - - - - - - 12.2 1018.0 0.0
18/03:30pm NNW 13 17 - - - - - - - 13.1 1017.8 0.0
18/03:00pm NW 15 19 - - - - - - - 12.6 1017.8 0.0
18/02:30pm NW 17 20 - - - - - - - 13.2 1018.4 0.0
18/02:00pm NNW 15 19 - - - - - - - 12.9 1017.9 0.0
18/01:30pm N 15 18 - - - - - - - 12.6 1018.3 0.0
18/01:00pm NNW 16 18 - - - - - - - 12.6 1019.6 0.0
18/12:30pm NNW 15 19 - - - - - - - 12.9 1019.9 0.0
18/12:00pm NNW 9 11 - - - - - - - 12.6 1020.4 0.0
18/11:30am NNW 11 14 - - - - - - - 13.0 1021.4 0.0
18/11:00am NNW 5 8 - - - - - - - 13.5 1022.0 0.0
18/10:30am N 5 6 - - - - - - - 13.4 1022.4 0.0
18/10:00am N 6 7 - - - - - - - 12.1 1022.3 0.0
18/09:30am NNE 6 7 - - - - - - - 11.1 1022.1 0.0
18/09:00am NNE 6 7 - - - - - - - 9.9 1021.9 0.2
18/08:30am CALM 0 0 - - - - - - - 10.0 1021.8 0.2
18/08:00am SSE 3 5 - - - - - - - 9.2 1022.1 0.2
18/07:30am SE 4 5 - - - - - - - 8.5 1021.9 0.2
18/07:00am ESE 5 5 - - - - - - - 8.0 1022.0 0.2
18/06:30am ESE 4 5 - - - - - - - 8.0 1022.3 0.2
18/06:00am ESE 3 5 - - - - - - - 8.5 1022.3 0.2
18/05:30am S 9 11 - - - - - - - 8.7 1022.1 0.2
18/05:00am SSE 8 10 - - - - - - - 7.9 1022.0 0.2
18/04:30am SSE 7 8 - - - - - - - 7.2 1022.0 0.2
18/04:00am SSE 6 6 - - - - - - - 5.0 1022.1 0.2
18/03:30am S 6 8 - - - - - - - 7.7 1022.2 0.2
18/03:00am SSW 6 7 - - - - - - - 8.2 1022.5 0.2
18/02:30am S 6 7 - - - - - - - 8.0 1022.6 0.2
18/02:00am SSW 5 7 - - - - - - - 7.5 1022.4 0.2
18/01:30am S 6 6 - - - - - - - 6.5 1022.2 0.2
18/01:00am S 5 6 - - - - - - - 5.7 1022.3 0.2
18/12:30am S 6 6 - - - - - - - 6.1 1022.0 0.2
18/12:00am S 6 6 - - - - - - - 5.8 1022.2 0.2
 
Date/Time
CST
Wind Sea
Height
m
Swell Vis
km
Cloud Weather Temp
°C
Press
MSL
hPa
Rain since
9am
mm
Dir  Spd
kts
Gust
kts
Height
m
Period
s
Dir
17/11:30pm SSW 4 5 - - - - - - - 6.6 1022.6 0.2
17/11:00pm S 5 6 - - - - - - - 6.9 1022.5 0.2
17/10:30pm S 6 6 - - - - - - - 7.8 1022.8 0.2
17/10:00pm S 7 8 - - - - - - - 7.8 1022.7 0.2
17/09:30pm SSW 8 10 - - - - - - - 9.6 1022.7 0.2
17/09:00pm SSW 8 9 - - - - - - - 9.8 1023.1 0.2
17/08:30pm SSW 7 9 - - - - - - - 9.5 1022.6 0.2
17/08:00pm SSW 8 11 - - - - - - - 9.6 1022.3 0.2
17/07:30pm SSW 11 13 - - - - - - - 9.9 1022.1 0.2
17/07:00pm SSW 10 12 - - - - - - - 10.3 1021.8 0.2
17/06:30pm SSW 11 14 - - - - - - - 10.4 1021.6 0.2
17/06:00pm SSW 11 14 - - - - - - - 9.5 1021.0 0.2
17/05:30pm SSW 12 15 - - - - - - - 10.3 1020.8 0.2
17/05:00pm SSW 13 16 - - - - - - - 11.0 1020.2 0.2
17/04:30pm SSW 15 20 - - - - - - - 11.9 1019.7 0.2
17/04:00pm SSW 17 22 - - - - - - - 12.2 1019.3 0.2
17/03:30pm SSW 16 20 - - - - - - - 11.5 1019.1 0.2
17/03:06pm SSW 19 29 - - - - - - - 12.5 1018.4 0.0
17/03:00pm SSW 18 23 - - - - - - - 13.8 1018.5 0.0
17/02:30pm S 20 27 - - - - - - - 11.1 1018.8 0.0
17/02:00pm SW 19 27 - - - - - - - 14.3 1018.4 0.0
17/01:30pm SW 21 25 - - - - - - - 13.8 1018.5 0.0
17/01:00pm SSW 20 24 - - - - - - - 14.5 1018.8 0.0
17/12:30pm SSW 19 26 - - - - - - - 13.1 1019.4 0.0
17/12:00pm SSW 20 24 - - - - - - - 13.9 1019.7 0.0
17/11:30am SSW 21 26 - - - - - - - 13.4 1020.0 0.0
17/11:00am SSW 21 25 - - - - - - - 13.6 1020.2 0.0
17/10:30am SSW 19 24 - - - - - - - 12.3 1020.3 0.0
17/10:00am SSW 16 21 - - - - - - - 12.0 1020.4 0.0
17/09:30am SSW 14 18 - - - - - - - 10.9 1020.2 0.0
17/09:00am SSW 9 10 - - - - - - - 9.2 1020.0 0.0
17/08:30am SSW 7 8 - - - - - - - 7.2 1019.7 0.0
17/08:00am S 5 6 - - - - - - - 6.4 1019.5 0.0
17/07:30am SSW 6 6 - - - - - - - 4.3 1019.4 0.0
17/07:00am SSW 5 6 - - - - - - - 3.5 1019.3 0.0
17/06:30am SSW 6 7 - - - - - - - 3.5 1019.1 0.0
17/06:00am SSW 6 7 - - - - - - - 4.2 1018.8 0.0
17/05:30am SSW 6 7 - - - - - - - 4.9 1018.7 0.0
17/05:00am SSW 5 6 - - - - - - - 4.4 1018.7 0.0
17/04:30am S 6 7 - - - - - - - 5.2 1018.6 0.0
17/04:00am SSW 5 6 - - - - - - - 3.9 1018.8 0.0
17/03:30am SSW 5 6 - - - - - - - 4.2 1018.9 0.0
17/03:00am SSW 6 7 - - - - - - - 4.5 1019.2 0.0
17/02:30am SSW 6 7 - - - - - - - 5.4 1019.4 0.0
17/02:00am SW 6 7 - - - - - - - 5.4 1019.4 0.0
17/01:30am SSW 6 7 - - - - - - - 4.3 1019.6 0.0
17/01:00am SSW 5 6 - - - - - - - 5.1 1019.9 0.0
17/12:30am SW 5 6 - - - - - - - 5.9 1020.0 0.0
17/12:00am SSW 5 6 - - - - - - - 4.9 1020.3 0.0
 
Date/Time
CST
Wind Sea
Height
m
Swell Vis
km
Cloud Weather Temp
°C
Press
MSL
hPa
Rain since
9am
mm
Dir  Spd
kts
Gust
kts
Height
m
Period
s
Dir
16/11:30pm SW 6 7 - - - - - - - 6.5 1020.4 0.0
16/11:00pm SW 5 6 - - - - - - - 6.0 1020.6 0.0
16/10:30pm SSW 6 7 - - - - - - - 6.0 1020.8 0.0
16/10:00pm SSW 5 6 - - - - - - - 5.9 1020.8 0.0
16/09:30pm SSW 6 7 - - - - - - - 6.9 1020.8 0.0
16/09:00pm SSW 6 8 - - - - - - - 6.9 1020.7 0.0
16/08:30pm SSW 8 11 - - - - - - - 7.4 1020.7 0.0
16/08:00pm S 7 8 - - - - - - - 6.4 1020.5 0.0
16/07:30pm SSW 7 8 - - - - - - - 6.5 1020.5 0.0
16/07:00pm S 7 8 - - - - - - - 7.7 1020.3 0.0
16/06:30pm S 8 9 - - - - - - - 8.7 1020.1 0.0
16/06:00pm S 9 11 - - - - - - - 9.2 1019.8 0.0
16/05:30pm SSW 14 17 - - - - - - - 11.2 1019.4 0.0
16/05:00pm SSW 11 14 - - - - - - - 12.3 1019.2 0.0
16/04:30pm SSW 17 23 - - - - - - - 13.2 1019.1 0.0
16/04:00pm SSW 16 21 - - - - - - - 13.4 1018.8 0.0
16/03:30pm SSW 17 22 - - - - - - - 13.7 1018.6 0.0
16/03:00pm S 20 24 - - - - - - - 13.1 1018.5 0.0
16/02:30pm SSW 17 22 - - - - - - - 15.2 1018.4 0.0
16/02:00pm SSW 19 23 - - - - - - - 13.8 1018.5 0.0
16/01:30pm S 19 25 - - - - - - - 14.0 1018.7 0.0
16/01:16pm S 21 31 - - - - - - - 13.0 1019.1 0.0
16/01:09pm SSW 19 31 - - - - - - - 13.3 1018.9 0.0
16/01:00pm SSW 13 19 - - - - - - - 13.0 1019.3 0.0
16/12:30pm SSW 16 24 - - - - - - - 12.8 1019.7 0.0
16/12:00pm S 19 25 - - - - - - - 13.2 1020.0 0.0
16/11:30am SSW 16 22 - - - - - - - 13.4 1020.3 0.0
16/11:00am SSW 16 19 - - - - - - - 12.9 1020.5 0.0
16/10:30am SSW 18 22 - - - - - - - 12.2 1020.5 0.0
16/10:00am SSW 14 18 - - - - - - - 11.2 1020.5 0.0
16/09:52am SSW 17 27 - - - - - - - 10.6 1020.4 0.0
16/09:30am SSW 16 21 - - - - - - - 11.3 1020.3 0.0
16/09:00am SSW 12 15 - - - - - - - 9.5 1020.2 0.2
16/08:39am SSW 15 25 - - - - - - - 9.7 1020.0 0.2
16/08:30am SSW 13 16 - - - - - - - 9.7 1019.8 0.2
16/08:00am SSW 6 7 - - - - - - - 7.6 1019.6 0.2
16/07:30am S 7 10 - - - - - - - 8.3 1019.4 0.2
16/07:00am SW 7 11 - - - - - - - 8.0 1019.1 0.2
16/06:30am SSW 10 11 - - - - - - - 8.2 1018.6 0.2
16/06:00am SSW 11 13 - - - - - - - 8.4 1018.6 0.0
16/05:30am SSW 10 13 - - - - - - - 8.8 1018.4 0.0
16/05:00am SSW 11 14 - - - - - - - 8.4 1018.1 0.0
16/04:30am SSW 16 21 - - - - - - - 9.1 1018.1 0.0
16/04:00am SSW 8 11 - - - - - - - 8.7 1018.1 0.0
16/03:30am SSW 8 11 - - - - - - - 8.8 1018.2 0.0
16/03:00am SSW 11 15 - - - - - - - 9.4 1018.2 0.0
16/02:30am SSW 10 14 - - - - - - - 8.7 1018.2 0.0
16/02:00am SSW 10 13 - - - - - - - 8.7 1018.1 0.0
16/01:30am SSW 11 14 - - - - - - - 9.1 1018.1 0.0
16/01:00am SSW 7 9 - - - - - - - 8.2 1018.1 0.0
16/12:30am SSW 8 9 - - - - - - - 7.8 1018.2 0.0
16/12:00am SSW 8 9 - - - - - - - 7.4 1018.4 0.0
 
Date/Time
CST
Wind Sea
Height
m
Swell Vis
km
Cloud Weather Temp
°C
Press
MSL
hPa
Rain since
9am
mm
Dir  Spd
kts
Gust
kts
Height
m
Period
s
Dir
15/11:30pm SSW 9 11 - - - - - - - 7.7 1018.5 0.0
15/11:00pm SSW 8 8 - - - - - - - 7.0 1018.5 0.0

Other formats

Comma delimited format used in spreadsheet applications
http://www.bom.gov.au/fwo/IDS60701/IDS60701.95659.axf

JavaScript Object Notation format (JSON) in row-major order
http://www.bom.gov.au/fwo/IDS60701/IDS60701.95659.json

Data quality

Most of these data are generated automatically and are frequently updated. Quality checks on data are not normally performed. It is possible for incorrect values to appear. Refer to information at About Latest Weather Observations and please check the disclaimer before using these data.